sensor_id;sensor_type;location;lat;lon;timestamp;temperature;humidity
6008;DHT22;3032;49.484;11.112;2023-05-10T00:01:56;17.80;99.90
6008;DHT22;3032;49.484;11.112;2023-05-10T00:04:21;18.00;99.90
6008;DHT22;3032;49.484;11.112;2023-05-10T00:06:47;18.00;99.90
6008;DHT22;3032;49.484;11.112;2023-05-10T00:09:13;18.00;99.90
6008;DHT22;3032;49.484;11.112;2023-05-10T00:11:38;18.00;99.90
6008;DHT22;3032;49.484;11.112;2023-05-10T00:14:04;18.20;99.90
6008;DHT22;3032;49.484;11.112;2023-05-10T00:16:30;18.00;99.90
6008;DHT22;3032;49.484;11.112;2023-05-10T00:18:55;18.40;99.90
6008;DHT22;3032;49.484;11.112;2023-05-10T00:21:21;18.10;99.90
6008;DHT22;3032;49.484;11.112;2023-05-10T00:23:46;18.00;99.90
6008;DHT22;3032;49.484;11.112;2023-05-10T00:26:12;17.80;99.90
6008;DHT22;3032;49.484;11.112;2023-05-10T00:28:37;18.10;99.90
6008;DHT22;3032;49.484;11.112;2023-05-10T00:31:03;17.80;99.90
6008;DHT22;3032;49.484;11.112;2023-05-10T00:33:29;17.70;99.90
6008;DHT22;3032;49.484;11.112;2023-05-10T00:35:54;17.60;99.90
6008;DHT22;3032;49.484;11.112;2023-05-10T00:38:20;17.60;99.90
6008;DHT22;3032;49.484;11.112;2023-05-10T00:40:46;17.70;99.90
6008;DHT22;3032;49.484;11.112;2023-05-10T00:43:11;17.60;99.90
6008;DHT22;3032;49.484;11.112;2023-05-10T00:45:37;17.60;99.90
6008;DHT22;3032;49.484;11.112;2023-05-10T00:48:04;17.60;99.90
6008;DHT22;3032;49.484;11.112;2023-05-10T00:50:31;17.40;99.90
6008;DHT22;3032;49.484;11.112;2023-05-10T00:52:58;17.30;99.90
6008;DHT22;3032;49.484;11.112;2023-05-10T00:55:24;17.30;99.90
6008;DHT22;3032;49.484;11.112;2023-05-10T00:57:50;17.10;99.90
6008;DHT22;3032;49.484;11.112;2023-05-10T01:00:16;16.90;99.90
6008;DHT22;3032;49.484;11.112;2023-05-10T01:02:44;16.70;99.90
6008;DHT22;3032;49.484;11.112;2023-05-10T01:05:10;16.30;99.90
6008;DHT22;3032;49.484;11.112;2023-05-10T01:07:36;16.10;99.90
6008;DHT22;3032;49.484;11.112;2023-05-10T01:10:02;16.00;99.90
6008;DHT22;3032;49.484;11.112;2023-05-10T01:12:27;16.10;99.90
6008;DHT22;3032;49.484;11.112;2023-05-10T01:14:54;16.20;99.90
6008;DHT22;3032;49.484;11.112;2023-05-10T01:17:20;16.30;99.90
6008;DHT22;3032;49.484;11.112;2023-05-10T01:19:47;16.30;99.90
6008;DHT22;3032;49.484;11.112;2023-05-10T01:25:19;16.60;99.90
6008;DHT22;3032;49.484;11.112;2023-05-10T01:28:06;16.70;99.90
6008;DHT22;3032;49.484;11.112;2023-05-10T01:33:46;16.60;99.90
6008;DHT22;3032;49.484;11.112;2023-05-10T01:38:57;16.00;99.90
6008;DHT22;3032;49.484;11.112;2023-05-10T01:41:51;15.80;99.90
6008;DHT22;3032;49.484;11.112;2023-05-10T01:44:28;15.80;99.90
6008;DHT22;3032;49.484;11.112;2023-05-10T01:47:37;15.90;99.90
6008;DHT22;3032;49.484;11.112;2023-05-10T01:50:03;16.00;99.90
6008;DHT22;3032;49.484;11.112;2023-05-10T01:52:37;15.90;99.90
6008;DHT22;3032;49.484;11.112;2023-05-10T01:55:10;15.80;99.90
6008;DHT22;3032;49.484;11.112;2023-05-10T01:57:37;15.70;99.90
6008;DHT22;3032;49.484;11.112;2023-05-10T02:00:06;15.30;99.90
6008;DHT22;3032;49.484;11.112;2023-05-10T02:02:35;15.20;99.90
6008;DHT22;3032;49.484;11.112;2023-05-10T02:05:06;15.20;99.90
6008;DHT22;3032;49.484;11.112;2023-05-10T02:07:35;15.40;99.90
6008;DHT22;3032;49.484;11.112;2023-05-10T02:10:03;15.30;99.90
6008;DHT22;3032;49.484;11.112;2023-05-10T02:12:30;15.40;99.90
6008;DHT22;3032;49.484;11.112;2023-05-10T02:14:57;15.40;99.90
6008;DHT22;3032;49.484;11.112;2023-05-10T02:17:25;15.60;99.90
6008;DHT22;3032;49.484;11.112;2023-05-10T02:19:51;15.60;99.90
6008;DHT22;3032;49.484;11.112;2023-05-10T02:22:18;15.70;99.90
6008;DHT22;3032;49.484;11.112;2023-05-10T02:24:44;15.80;99.90
6008;DHT22;3032;49.484;11.112;2023-05-10T02:27:11;16.00;99.90
6008;DHT22;3032;49.484;11.112;2023-05-10T02:29:38;16.20;99.90
6008;DHT22;3032;49.484;11.112;2023-05-10T02:32:04;16.40;99.90
6008;DHT22;3032;49.484;11.112;2023-05-10T02:34:31;17.00;99.90
6008;DHT22;3032;49.484;11.112;2023-05-10T02:36:58;16.60;99.90
6008;DHT22;3032;49.484;11.112;2023-05-10T02:39:25;16.70;99.90
6008;DHT22;3032;49.484;11.112;2023-05-10T02:41:52;16.60;99.90
6008;DHT22;3032;49.484;11.112;2023-05-10T02:44:19;16.20;99.90
6008;DHT22;3032;49.484;11.112;2023-05-10T02:46:45;16.30;99.90
6008;DHT22;3032;49.484;11.112;2023-05-10T02:49:12;16.50;99.90
6008;DHT22;3032;49.484;11.112;2023-05-10T02:51:42;16.80;99.90
6008;DHT22;3032;49.484;11.112;2023-05-10T02:54:15;17.40;99.90
6008;DHT22;3032;49.484;11.112;2023-05-10T02:56:47;16.80;99.90
6008;DHT22;3032;49.484;11.112;2023-05-10T02:59:15;16.60;99.90
6008;DHT22;3032;49.484;11.112;2023-05-10T03:01:41;16.60;99.90
6008;DHT22;3032;49.484;11.112;2023-05-10T03:04:07;16.50;99.90
6008;DHT22;3032;49.484;11.112;2023-05-10T03:06:32;16.60;99.90
6008;DHT22;3032;49.484;11.112;2023-05-10T03:08:58;16.80;99.90
6008;DHT22;3032;49.484;11.112;2023-05-10T03:11:43;16.80;99.90
6008;DHT22;3032;49.484;11.112;2023-05-10T03:14:53;16.60;99.90
6008;DHT22;3032;49.484;11.112;2023-05-10T03:17:23;16.50;99.90
6008;DHT22;3032;49.484;11.112;2023-05-10T03:22:32;16.20;99.90
6008;DHT22;3032;49.484;11.112;2023-05-10T03:25:00;16.20;99.90
6008;DHT22;3032;49.484;11.112;2023-05-10T03:27:31;16.10;99.90
6008;DHT22;3032;49.484;11.112;2023-05-10T03:29:57;16.10;99.90
6008;DHT22;3032;49.484;11.112;2023-05-10T03:32:24;16.10;99.90
6008;DHT22;3032;49.484;11.112;2023-05-10T03:34:49;16.10;99.90
6008;DHT22;3032;49.484;11.112;2023-05-10T03:37:15;16.20;99.90
6008;DHT22;3032;49.484;11.112;2023-05-10T03:39:40;16.20;99.90
6008;DHT22;3032;49.484;11.112;2023-05-10T03:42:06;16.20;99.90
6008;DHT22;3032;49.484;11.112;2023-05-10T03:44:31;16.20;99.90
6008;DHT22;3032;49.484;11.112;2023-05-10T03:46:58;16.00;99.90
6008;DHT22;3032;49.484;11.112;2023-05-10T03:49:24;15.90;99.90
6008;DHT22;3032;49.484;11.112;2023-05-10T03:51:49;15.90;99.90
6008;DHT22;3032;49.484;11.112;2023-05-10T03:54:15;15.80;99.90
6008;DHT22;3032;49.484;11.112;2023-05-10T03:56:41;15.80;99.90
6008;DHT22;3032;49.484;11.112;2023-05-10T03:59:06;15.70;99.90
6008;DHT22;3032;49.484;11.112;2023-05-10T04:01:33;15.80;99.90
6008;DHT22;3032;49.484;11.112;2023-05-10T04:03:59;15.70;99.90
6008;DHT22;3032;49.484;11.112;2023-05-10T04:06:24;15.70;99.90
6008;DHT22;3032;49.484;11.112;2023-05-10T04:08:50;15.70;99.90
6008;DHT22;3032;49.484;11.112;2023-05-10T04:11:16;15.70;99.90
6008;DHT22;3032;49.484;11.112;2023-05-10T04:13:41;15.90;99.90
6008;DHT22;3032;49.484;11.112;2023-05-10T04:16:08;15.70;99.90
6008;DHT22;3032;49.484;11.112;2023-05-10T04:18:34;15.90;99.90
6008;DHT22;3032;49.484;11.112;2023-05-10T04:21:00;15.70;99.90
6008;DHT22;3032;49.484;11.112;2023-05-10T04:23:26;15.80;99.90
6008;DHT22;3032;49.484;11.112;2023-05-10T04:25:52;15.70;99.90
6008;DHT22;3032;49.484;11.112;2023-05-10T04:28:18;15.70;99.90
6008;DHT22;3032;49.484;11.112;2023-05-10T04:30:43;15.90;99.90
6008;DHT22;3032;49.484;11.112;2023-05-10T04:33:09;15.90;99.90
6008;DHT22;3032;49.484;11.112;2023-05-10T04:35:35;15.90;99.90
6008;DHT22;3032;49.484;11.112;2023-05-10T04:38:00;16.00;99.90
6008;DHT22;3032;49.484;11.112;2023-05-10T04:40:26;16.00;99.90
6008;DHT22;3032;49.484;11.112;2023-05-10T04:42:51;15.90;99.90
6008;DHT22;3032;49.484;11.112;2023-05-10T04:45:17;15.70;99.90
6008;DHT22;3032;49.484;11.112;2023-05-10T04:47:42;15.70;99.90
6008;DHT22;3032;49.484;11.112;2023-05-10T04:50:08;15.50;99.90
6008;DHT22;3032;49.484;11.112;2023-05-10T04:52:34;15.60;99.90
6008;DHT22;3032;49.484;11.112;2023-05-10T04:54:59;15.70;99.90
6008;DHT22;3032;49.484;11.112;2023-05-10T04:57:25;15.60;99.90
6008;DHT22;3032;49.484;11.112;2023-05-10T04:59:51;15.50;99.90
6008;DHT22;3032;49.484;11.112;2023-05-10T05:02:16;15.30;99.90
6008;DHT22;3032;49.484;11.112;2023-05-10T05:04:42;15.50;99.90
6008;DHT22;3032;49.484;11.112;2023-05-10T05:07:07;15.60;99.90
6008;DHT22;3032;49.484;11.112;2023-05-10T05:09:33;15.50;99.90
6008;DHT22;3032;49.484;11.112;2023-05-10T05:11:58;15.40;99.90
6008;DHT22;3032;49.484;11.112;2023-05-10T05:14:24;15.60;99.90
6008;DHT22;3032;49.484;11.112;2023-05-10T05:16:52;15.70;99.90
6008;DHT22;3032;49.484;11.112;2023-05-10T05:19:18;15.80;99.90
6008;DHT22;3032;49.484;11.112;2023-05-10T05:21:44;15.80;99.90
6008;DHT22;3032;49.484;11.112;2023-05-10T05:24:09;15.90;99.90
6008;DHT22;3032;49.484;11.112;2023-05-10T05:26:36;16.20;99.90
6008;DHT22;3032;49.484;11.112;2023-05-10T05:29:02;16.10;99.90
6008;DHT22;3032;49.484;11.112;2023-05-10T05:31:28;16.00;99.90
6008;DHT22;3032;49.484;11.112;2023-05-10T05:33:53;16.30;99.90
6008;DHT22;3032;49.484;11.112;2023-05-10T05:36:19;16.40;99.90
6008;DHT22;3032;49.484;11.112;2023-05-10T05:39:06;16.60;99.90
6008;DHT22;3032;49.484;11.112;2023-05-10T05:41:32;16.80;99.90
6008;DHT22;3032;49.484;11.112;2023-05-10T05:43:57;17.00;99.90
6008;DHT22;3032;49.484;11.112;2023-05-10T05:46:23;17.00;99.90
6008;DHT22;3032;49.484;11.112;2023-05-10T05:48:48;16.90;99.90
6008;DHT22;3032;49.484;11.112;2023-05-10T05:51:14;16.90;99.90
6008;DHT22;3032;49.484;11.112;2023-05-10T05:53:39;17.00;99.90
6008;DHT22;3032;49.484;11.112;2023-05-10T05:56:05;16.60;99.90
6008;DHT22;3032;49.484;11.112;2023-05-10T05:58:31;16.80;99.90
6008;DHT22;3032;49.484;11.112;2023-05-10T06:00:56;16.60;99.90
6008;DHT22;3032;49.484;11.112;2023-05-10T06:03:22;16.60;99.90
6008;DHT22;3032;49.484;11.112;2023-05-10T06:05:48;16.70;99.90
6008;DHT22;3032;49.484;11.112;2023-05-10T06:08:13;17.00;99.90
6008;DHT22;3032;49.484;11.112;2023-05-10T06:10:39;17.30;99.90
6008;DHT22;3032;49.484;11.112;2023-05-10T06:13:04;17.50;99.90
6008;DHT22;3032;49.484;11.112;2023-05-10T06:15:30;17.60;99.90
6008;DHT22;3032;49.484;11.112;2023-05-10T06:17:56;17.70;99.90
6008;DHT22;3032;49.484;11.112;2023-05-10T06:20:21;17.70;99.90
6008;DHT22;3032;49.484;11.112;2023-05-10T06:22:47;18.40;99.90
6008;DHT22;3032;49.484;11.112;2023-05-10T06:25:12;17.80;99.90
6008;DHT22;3032;49.484;11.112;2023-05-10T06:27:39;17.80;99.90
6008;DHT22;3032;49.484;11.112;2023-05-10T06:30:05;17.80;99.90
6008;DHT22;3032;49.484;11.112;2023-05-10T06:32:31;17.80;99.90
6008;DHT22;3032;49.484;11.112;2023-05-10T06:34:57;18.00;99.90
6008;DHT22;3032;49.484;11.112;2023-05-10T06:37:22;18.50;99.90
6008;DHT22;3032;49.484;11.112;2023-05-10T06:39:48;18.70;99.90
6008;DHT22;3032;49.484;11.112;2023-05-10T06:42:13;18.70;99.90
6008;DHT22;3032;49.484;11.112;2023-05-10T06:44:39;18.60;99.90
6008;DHT22;3032;49.484;11.112;2023-05-10T06:47:05;18.60;99.90
6008;DHT22;3032;49.484;11.112;2023-05-10T06:49:30;18.50;99.90
6008;DHT22;3032;49.484;11.112;2023-05-10T06:51:56;18.50;99.90
6008;DHT22;3032;49.484;11.112;2023-05-10T06:54:22;18.80;99.90
6008;DHT22;3032;49.484;11.112;2023-05-10T06:56:48;18.90;99.90
6008;DHT22;3032;49.484;11.112;2023-05-10T06:59:14;19.60;99.90
6008;DHT22;3032;49.484;11.112;2023-05-10T07:01:40;19.80;99.90
6008;DHT22;3032;49.484;11.112;2023-05-10T07:04:06;19.40;99.90
6008;DHT22;3032;49.484;11.112;2023-05-10T07:06:32;19.70;99.90
6008;DHT22;3032;49.484;11.112;2023-05-10T07:08:58;19.80;99.90
6008;DHT22;3032;49.484;11.112;2023-05-10T07:11:24;20.10;99.90
6008;DHT22;3032;49.484;11.112;2023-05-10T07:13:50;19.80;99.90
6008;DHT22;3032;49.484;11.112;2023-05-10T07:16:15;19.70;99.90
6008;DHT22;3032;49.484;11.112;2023-05-10T07:18:41;19.70;99.90
6008;DHT22;3032;49.484;11.112;2023-05-10T07:21:06;19.70;99.90
6008;DHT22;3032;49.484;11.112;2023-05-10T07:23:32;19.70;99.90
6008;DHT22;3032;49.484;11.112;2023-05-10T07:25:57;20.10;99.90
6008;DHT22;3032;49.484;11.112;2023-05-10T07:28:23;19.80;99.90
6008;DHT22;3032;49.484;11.112;2023-05-10T07:30:52;19.70;99.90
6008;DHT22;3032;49.484;11.112;2023-05-10T07:33:17;19.60;99.90
6008;DHT22;3032;49.484;11.112;2023-05-10T07:35:43;19.80;99.90
6008;DHT22;3032;49.484;11.112;2023-05-10T07:38:08;19.60;99.90
6008;DHT22;3032;49.484;11.112;2023-05-10T07:40:36;19.70;99.90
6008;DHT22;3032;49.484;11.112;2023-05-10T07:43:01;20.00;99.90
6008;DHT22;3032;49.484;11.112;2023-05-10T07:45:28;20.30;99.90
6008;DHT22;3032;49.484;11.112;2023-05-10T07:47:53;20.40;99.90
6008;DHT22;3032;49.484;11.112;2023-05-10T07:50:19;20.40;99.90
6008;DHT22;3032;49.484;11.112;2023-05-10T07:52:46;20.10;99.90
6008;DHT22;3032;49.484;11.112;2023-05-10T07:55:12;20.30;99.90
6008;DHT22;3032;49.484;11.112;2023-05-10T07:57:38;19.70;99.90
6008;DHT22;3032;49.484;11.112;2023-05-10T08:00:04;19.50;99.90
6008;DHT22;3032;49.484;11.112;2023-05-10T08:02:29;19.30;99.90
6008;DHT22;3032;49.484;11.112;2023-05-10T08:04:55;19.60;99.90
6008;DHT22;3032;49.484;11.112;2023-05-10T08:07:21;18.90;99.90
6008;DHT22;3032;49.484;11.112;2023-05-10T08:09:46;18.70;99.90
6008;DHT22;3032;49.484;11.112;2023-05-10T08:12:12;19.10;99.90
6008;DHT22;3032;49.484;11.112;2023-05-10T08:14:37;19.00;99.90
6008;DHT22;3032;49.484;11.112;2023-05-10T08:17:03;19.00;99.90
6008;DHT22;3032;49.484;11.112;2023-05-10T08:19:29;18.60;99.90
6008;DHT22;3032;49.484;11.112;2023-05-10T08:21:55;18.30;99.90
6008;DHT22;3032;49.484;11.112;2023-05-10T08:24:23;18.90;99.90
6008;DHT22;3032;49.484;11.112;2023-05-10T08:26:49;18.50;99.90
6008;DHT22;3032;49.484;11.112;2023-05-10T08:29:15;18.60;99.90
6008;DHT22;3032;49.484;11.112;2023-05-10T08:34:53;19.10;99.90
6008;DHT22;3032;49.484;11.112;2023-05-10T08:37:18;19.30;99.90
6008;DHT22;3032;49.484;11.112;2023-05-10T08:39:44;19.50;99.90
6008;DHT22;3032;49.484;11.112;2023-05-10T08:42:11;20.30;99.90
6008;DHT22;3032;49.484;11.112;2023-05-10T08:44:37;21.30;99.90
6008;DHT22;3032;49.484;11.112;2023-05-10T08:47:05;22.30;99.90
6008;DHT22;3032;49.484;11.112;2023-05-10T08:49:32;22.30;99.90
6008;DHT22;3032;49.484;11.112;2023-05-10T08:52:02;23.20;99.90
6008;DHT22;3032;49.484;11.112;2023-05-10T08:54:29;23.80;99.90
6008;DHT22;3032;49.484;11.112;2023-05-10T08:56:56;24.10;99.90
6008;DHT22;3032;49.484;11.112;2023-05-10T08:59:22;24.10;99.90
6008;DHT22;3032;49.484;11.112;2023-05-10T09:01:49;23.90;99.90
6008;DHT22;3032;49.484;11.112;2023-05-10T09:04:16;24.30;99.90
6008;DHT22;3032;49.484;11.112;2023-05-10T09:06:42;24.40;99.90
6008;DHT22;3032;49.484;11.112;2023-05-10T09:09:07;24.60;99.70
6008;DHT22;3032;49.484;11.112;2023-05-10T09:11:33;24.10;99.80
6008;DHT22;3032;49.484;11.112;2023-05-10T09:13:59;23.90;99.90
6008;DHT22;3032;49.484;11.112;2023-05-10T09:16:24;23.60;99.90
6008;DHT22;3032;49.484;11.112;2023-05-10T09:18:50;23.30;99.90
6008;DHT22;3032;49.484;11.112;2023-05-10T09:21:16;22.80;99.90
6008;DHT22;3032;49.484;11.112;2023-05-10T09:23:45;21.80;99.90
6008;DHT22;3032;49.484;11.112;2023-05-10T09:26:12;21.60;99.90
6008;DHT22;3032;49.484;11.112;2023-05-10T09:28:58;20.60;99.90
6008;DHT22;3032;49.484;11.112;2023-05-10T09:31:24;19.50;99.90
6008;DHT22;3032;49.484;11.112;2023-05-10T09:33:51;18.70;99.90
6008;DHT22;3032;49.484;11.112;2023-05-10T09:36:17;18.40;99.90
6008;DHT22;3032;49.484;11.112;2023-05-10T09:38:50;18.10;99.90
6008;DHT22;3032;49.484;11.112;2023-05-10T09:41:21;17.80;99.90
6008;DHT22;3032;49.484;11.112;2023-05-10T09:43:47;17.80;99.90
6008;DHT22;3032;49.484;11.112;2023-05-10T09:46:13;17.90;99.90
6008;DHT22;3032;49.484;11.112;2023-05-10T09:48:42;18.10;99.90
6008;DHT22;3032;49.484;11.112;2023-05-10T09:51:08;18.40;99.90
6008;DHT22;3032;49.484;11.112;2023-05-10T09:53:33;18.80;99.90
6008;DHT22;3032;49.484;11.112;2023-05-10T09:55:59;19.00;99.90
6008;DHT22;3032;49.484;11.112;2023-05-10T09:58:25;19.30;99.90
6008;DHT22;3032;49.484;11.112;2023-05-10T10:00:50;19.60;99.90
6008;DHT22;3032;49.484;11.112;2023-05-10T10:03:20;19.90;99.90
6008;DHT22;3032;49.484;11.112;2023-05-10T10:05:47;20.20;99.90
6008;DHT22;3032;49.484;11.112;2023-05-10T10:08:13;21.30;99.90
6008;DHT22;3032;49.484;11.112;2023-05-10T10:10:40;21.70;99.90
6008;DHT22;3032;49.484;11.112;2023-05-10T10:13:06;22.80;99.90
6008;DHT22;3032;49.484;11.112;2023-05-10T10:15:33;23.70;99.90
6008;DHT22;3032;49.484;11.112;2023-05-10T10:17:59;24.70;99.90
6008;DHT22;3032;49.484;11.112;2023-05-10T10:20:26;24.20;99.90
6008;DHT22;3032;49.484;11.112;2023-05-10T10:22:52;25.00;99.90
6008;DHT22;3032;49.484;11.112;2023-05-10T10:25:19;26.10;99.90
6008;DHT22;3032;49.484;11.112;2023-05-10T10:30:48;27.80;98.90
6008;DHT22;3032;49.484;11.112;2023-05-10T10:33:44;28.50;97.00
6008;DHT22;3032;49.484;11.112;2023-05-10T10:36:16;29.10;92.90
6008;DHT22;3032;49.484;11.112;2023-05-10T10:41:34;30.50;89.50
6008;DHT22;3032;49.484;11.112;2023-05-10T10:49:48;30.10;81.50
6008;DHT22;3032;49.484;11.112;2023-05-10T11:03:05;24.80;90.90
6008;DHT22;3032;49.484;11.112;2023-05-10T11:05:39;24.00;92.90
6008;DHT22;3032;49.484;11.112;2023-05-10T11:08:28;23.30;93.60
6008;DHT22;3032;49.484;11.112;2023-05-10T11:15:56;21.20;97.90
6008;DHT22;3032;49.484;11.112;2023-05-10T11:18:31;21.10;99.10
6008;DHT22;3032;49.484;11.112;2023-05-10T11:20:58;21.00;98.90
6008;DHT22;3032;49.484;11.112;2023-05-10T11:26:11;20.50;99.90
6008;DHT22;3032;49.484;11.112;2023-05-10T11:28:47;20.30;99.90
6008;DHT22;3032;49.484;11.112;2023-05-10T11:31:17;20.20;99.90
6008;DHT22;3032;49.484;11.112;2023-05-10T11:36:15;20.40;99.90
6008;DHT22;3032;49.484;11.112;2023-05-10T11:38:40;20.40;99.90
6008;DHT22;3032;49.484;11.112;2023-05-10T11:41:08;20.50;99.90
6008;DHT22;3032;49.484;11.112;2023-05-10T11:43:35;21.30;99.90
6008;DHT22;3032;49.484;11.112;2023-05-10T11:46:02;21.20;99.90
6008;DHT22;3032;49.484;11.112;2023-05-10T11:48:29;21.40;99.90
6008;DHT22;3032;49.484;11.112;2023-05-10T11:50:55;21.40;99.90
6008;DHT22;3032;49.484;11.112;2023-05-10T11:53:22;21.50;99.90
6008;DHT22;3032;49.484;11.112;2023-05-10T11:55:48;21.40;99.90
6008;DHT22;3032;49.484;11.112;2023-05-10T11:58:13;21.60;99.90
6008;DHT22;3032;49.484;11.112;2023-05-10T12:00:39;21.90;99.90
6008;DHT22;3032;49.484;11.112;2023-05-10T12:03:05;21.80;99.90
6008;DHT22;3032;49.484;11.112;2023-05-10T12:05:34;22.20;99.90
6008;DHT22;3032;49.484;11.112;2023-05-10T12:08:14;22.60;99.90
6008;DHT22;3032;49.484;11.112;2023-05-10T12:10:40;22.90;99.50
6008;DHT22;3032;49.484;11.112;2023-05-10T12:13:11;23.10;99.60
6008;DHT22;3032;49.484;11.112;2023-05-10T12:15:37;23.60;98.90
6008;DHT22;3032;49.484;11.112;2023-05-10T12:18:02;23.40;98.60
6008;DHT22;3032;49.484;11.112;2023-05-10T12:20:28;23.50;98.10
6008;DHT22;3032;49.484;11.112;2023-05-10T12:22:57;23.70;98.10
6008;DHT22;3032;49.484;11.112;2023-05-10T12:25:24;23.90;98.60
6008;DHT22;3032;49.484;11.112;2023-05-10T12:27:55;23.90;98.20
6008;DHT22;3032;49.484;11.112;2023-05-10T12:30:29;23.80;98.00
6008;DHT22;3032;49.484;11.112;2023-05-10T12:33:00;23.50;98.00
6008;DHT22;3032;49.484;11.112;2023-05-10T12:35:26;23.50;98.20
6008;DHT22;3032;49.484;11.112;2023-05-10T12:37:51;23.10;97.50
6008;DHT22;3032;49.484;11.112;2023-05-10T12:40:17;23.40;99.00
6008;DHT22;3032;49.484;11.112;2023-05-10T12:42:43;23.20;97.80
6008;DHT22;3032;49.484;11.112;2023-05-10T12:45:10;23.30;97.50
6008;DHT22;3032;49.484;11.112;2023-05-10T12:47:36;22.70;98.00
6008;DHT22;3032;49.484;11.112;2023-05-10T12:50:03;22.60;98.40
6008;DHT22;3032;49.484;11.112;2023-05-10T12:52:29;22.80;98.50
6008;DHT22;3032;49.484;11.112;2023-05-10T12:54:55;22.80;98.60
6008;DHT22;3032;49.484;11.112;2023-05-10T12:57:20;23.00;97.90
6008;DHT22;3032;49.484;11.112;2023-05-10T12:59:46;23.20;98.30
6008;DHT22;3032;49.484;11.112;2023-05-10T13:02:12;23.20;97.80
6008;DHT22;3032;49.484;11.112;2023-05-10T13:04:38;23.10;98.40
6008;DHT22;3032;49.484;11.112;2023-05-10T13:07:06;23.30;97.00
6008;DHT22;3032;49.484;11.112;2023-05-10T13:09:32;22.90;96.80
6008;DHT22;3032;49.484;11.112;2023-05-10T13:11:57;23.10;96.90
6008;DHT22;3032;49.484;11.112;2023-05-10T13:14:24;23.30;97.10
6008;DHT22;3032;49.484;11.112;2023-05-10T13:16:50;23.30;97.40
6008;DHT22;3032;49.484;11.112;2023-05-10T13:19:16;23.50;97.00
6008;DHT22;3032;49.484;11.112;2023-05-10T13:21:42;23.60;96.70
6008;DHT22;3032;49.484;11.112;2023-05-10T13:24:07;22.90;97.50
6008;DHT22;3032;49.484;11.112;2023-05-10T13:26:33;22.20;97.50
6008;DHT22;3032;49.484;11.112;2023-05-10T13:28:59;21.70;99.00
6008;DHT22;3032;49.484;11.112;2023-05-10T13:31:25;22.10;99.10
6008;DHT22;3032;49.484;11.112;2023-05-10T13:33:50;21.60;97.30
6008;DHT22;3032;49.484;11.112;2023-05-10T13:36:16;21.60;99.90
6008;DHT22;3032;49.484;11.112;2023-05-10T13:38:41;21.30;99.90
6008;DHT22;3032;49.484;11.112;2023-05-10T13:41:07;21.10;99.90
6008;DHT22;3032;49.484;11.112;2023-05-10T13:43:32;20.90;99.90
6008;DHT22;3032;49.484;11.112;2023-05-10T13:45:58;20.60;99.90
6008;DHT22;3032;49.484;11.112;2023-05-10T13:48:24;20.20;99.90
6008;DHT22;3032;49.484;11.112;2023-05-10T13:50:49;20.00;99.90
6008;DHT22;3032;49.484;11.112;2023-05-10T13:53:15;19.90;99.90
6008;DHT22;3032;49.484;11.112;2023-05-10T13:55:41;20.60;99.90
6008;DHT22;3032;49.484;11.112;2023-05-10T13:58:06;20.10;99.90
6008;DHT22;3032;49.484;11.112;2023-05-10T14:00:32;19.90;99.90
6008;DHT22;3032;49.484;11.112;2023-05-10T14:02:58;20.00;99.90
6008;DHT22;3032;49.484;11.112;2023-05-10T14:05:23;19.70;99.90
6008;DHT22;3032;49.484;11.112;2023-05-10T14:07:50;19.60;99.90
6008;DHT22;3032;49.484;11.112;2023-05-10T14:10:16;19.50;99.90
6008;DHT22;3032;49.484;11.112;2023-05-10T14:12:41;19.70;99.90
6008;DHT22;3032;49.484;11.112;2023-05-10T14:15:07;20.20;99.90
6008;DHT22;3032;49.484;11.112;2023-05-10T14:17:51;20.50;99.90
6008;DHT22;3032;49.484;11.112;2023-05-10T14:20:17;21.30;99.90
6008;DHT22;3032;49.484;11.112;2023-05-10T14:22:42;21.10;99.90
6008;DHT22;3032;49.484;11.112;2023-05-10T14:25:08;21.00;99.90
6008;DHT22;3032;49.484;11.112;2023-05-10T14:27:34;21.30;99.90
6008;DHT22;3032;49.484;11.112;2023-05-10T14:29:59;21.20;99.90
6008;DHT22;3032;49.484;11.112;2023-05-10T14:32:25;21.60;99.90
6008;DHT22;3032;49.484;11.112;2023-05-10T14:34:52;21.50;99.90
6008;DHT22;3032;49.484;11.112;2023-05-10T14:37:17;21.30;99.90
6008;DHT22;3032;49.484;11.112;2023-05-10T14:39:43;21.40;99.90
6008;DHT22;3032;49.484;11.112;2023-05-10T14:42:08;21.30;99.90
6008;DHT22;3032;49.484;11.112;2023-05-10T14:44:34;21.50;99.90
6008;DHT22;3032;49.484;11.112;2023-05-10T14:47:00;21.50;99.90
6008;DHT22;3032;49.484;11.112;2023-05-10T14:49:25;21.70;99.90
6008;DHT22;3032;49.484;11.112;2023-05-10T15:33:18;18.50;99.90
6008;DHT22;3032;49.484;11.112;2023-05-10T15:35:43;18.70;99.90
6008;DHT22;3032;49.484;11.112;2023-05-10T15:38:09;19.00;99.90
6008;DHT22;3032;49.484;11.112;2023-05-10T15:40:36;19.40;99.90
6008;DHT22;3032;49.484;11.112;2023-05-10T15:43:02;18.90;99.90
6008;DHT22;3032;49.484;11.112;2023-05-10T15:45:27;19.40;99.90
6008;DHT22;3032;49.484;11.112;2023-05-10T15:47:53;19.00;99.90
6008;DHT22;3032;49.484;11.112;2023-05-10T15:50:18;19.20;99.90
6008;DHT22;3032;49.484;11.112;2023-05-10T15:52:44;19.50;99.90
6008;DHT22;3032;49.484;11.112;2023-05-10T15:55:10;19.20;99.90
6008;DHT22;3032;49.484;11.112;2023-05-10T15:57:41;19.10;99.90
6008;DHT22;3032;49.484;11.112;2023-05-10T16:00:41;19.20;99.90
6008;DHT22;3032;49.484;11.112;2023-05-10T16:03:07;19.50;99.90
6008;DHT22;3032;49.484;11.112;2023-05-10T16:05:33;19.60;99.90
6008;DHT22;3032;49.484;11.112;2023-05-10T16:08:02;20.00;99.90
6008;DHT22;3032;49.484;11.112;2023-05-10T16:10:30;19.50;99.90
6008;DHT22;3032;49.484;11.112;2023-05-10T16:12:57;19.50;99.90
6008;DHT22;3032;49.484;11.112;2023-05-10T16:15:23;19.90;99.90
6008;DHT22;3032;49.484;11.112;2023-05-10T16:17:49;19.60;99.90
6008;DHT22;3032;49.484;11.112;2023-05-10T16:20:14;19.80;99.90
6008;DHT22;3032;49.484;11.112;2023-05-10T16:22:40;19.70;99.90
6008;DHT22;3032;49.484;11.112;2023-05-10T16:25:05;19.90;99.90
6008;DHT22;3032;49.484;11.112;2023-05-10T16:27:31;19.70;99.90
6008;DHT22;3032;49.484;11.112;2023-05-10T16:29:58;19.90;99.90
6008;DHT22;3032;49.484;11.112;2023-05-10T16:32:24;20.00;99.90
6008;DHT22;3032;49.484;11.112;2023-05-10T16:34:49;20.30;99.90
6008;DHT22;3032;49.484;11.112;2023-05-10T16:37:15;20.10;99.90
6008;DHT22;3032;49.484;11.112;2023-05-10T16:39:41;19.90;99.90
6008;DHT22;3032;49.484;11.112;2023-05-10T16:42:06;19.80;99.90
6008;DHT22;3032;49.484;11.112;2023-05-10T16:44:32;20.00;99.90
6008;DHT22;3032;49.484;11.112;2023-05-10T16:46:57;20.00;99.90
6008;DHT22;3032;49.484;11.112;2023-05-10T16:49:23;19.70;99.90
6008;DHT22;3032;49.484;11.112;2023-05-10T16:51:49;19.10;99.90
6008;DHT22;3032;49.484;11.112;2023-05-10T16:54:14;18.80;99.90
6008;DHT22;3032;49.484;11.112;2023-05-10T16:56:41;18.80;99.90
6008;DHT22;3032;49.484;11.112;2023-05-10T16:59:07;19.00;99.90
6008;DHT22;3032;49.484;11.112;2023-05-10T17:01:32;19.00;99.90
6008;DHT22;3032;49.484;11.112;2023-05-10T17:03:58;19.40;99.90
6008;DHT22;3032;49.484;11.112;2023-05-10T17:06:24;19.10;99.90
6008;DHT22;3032;49.484;11.112;2023-05-10T17:08:49;19.00;99.90
6008;DHT22;3032;49.484;11.112;2023-05-10T17:11:15;18.70;99.90
6008;DHT22;3032;49.484;11.112;2023-05-10T17:13:40;18.60;99.90